Terminal Aerodrome Forecast
Issued by NWS

Home | Current Version | Previous Version | Text Only | Print | Product List | Glossary On
Versions: 1 2 3 4 5 6 7 8 9 10 11 12 13 14 15
000
FTUS43 KDLH 270900 AAA
TAFBRD
TAF AMD
KBRD 270942Z 2710/2806 28011KT P6SM VCSH SCT025 OVC040
     FM271300 34012G20KT P6SM VCSH BKN025 OVC035
     FM280200 34007KT P6SM FEW025 SCT035=

USA.gov is the U.S. government's official web portal to all federal, state and local government web resources and services.